Pagrindinis puslapis
METAR-TAF:

METAR-TAF

Oro uostai :

Kosraė, Mikronezija

platuma: 05-21N, ilguma: 162-57E, Aukštis: 3 m

Dabartinis oras

Ataskaita buvo paskelbta 8 valandos ir 14 minutes, ne 01:50 UTC
Vėjas 9 kt iš Pietryčių
Temperatūra 32°C
Drėgmė 63%
Slėgis 1009 hPa
Matomumas: 16.1 km
Išsisklaidę debesys ne aukštis 2400 ft
Su prošvaistėmis ne aukštis 30000 ft

METAR: PTSA 260150Z 14009KT 10SM SCT024 BKN300 32/24 A2981

Laikas: 21:04 (10:04 UTC)

Prognozė

Ataskaita buvo paskelbta 10 valandos ir 16 minutes, ne 23:48 UTC
Prognozė galioja nuo 26 metu 00 UTC su 26 metu 24 UTC
Vėjas 10 kt iš Pietryčių
Matomumas: 10 km
Išsisklaidę debesys ne aukštis 2000 ft
Liūtis kaimynystėje

TAF: PTSA 252348Z 2600/2624 13010KT P6SM VCSH SCT020

Orai ataskaitas ir orų prognozės (METAR, TAF).

turimą stotys yra geltonos ir raudonos taškus žemėlapyje.

Perkelti pele per norėdami pamatyti stoties vardą.

Tada spustelėkite, norėdami matyti oro stebėjimo ir prognozės.

Norėdami pakeisti žemėlapį: spustelėkite ant žalios mygtukų su juodo kryžiaus žemyn,; žalią mygtuką su brūkšneliu, jei norite nutolinti; arba žalių rodyklių gretimoms žemėlapius.


METAR-TAF: